Time;durP1;ratioP1;P1;durP2;ratioP2;P2;SDS_P1;SDS_P2;PMS_P1;PMS_P2;Temp;Humidity;BMP_temperature;BMP_pressure;BME280_temperature;BME280_humidity;BME280_pressure;Samples;Min_cycle;Max_cycle;Signal;HPM_P1;HPM_P2
2021/05/24 00:01:47;;;;;;;3.60;3.30;;;11.20;99.90;;;;;;6276727;28;20474;-58
2021/05/24 00:04:50;;;;;;;2.63;2.43;;;11.10;99.90;;;;;;6276738;28;20477;-58
2021/05/24 00:07:53;;;;;;;3.80;3.30;;;11.20;99.90;;;;;;6276311;28;21008;-58
2021/05/24 00:10:57;;;;;;;3.13;2.77;;;11.10;99.90;;;;;;6294629;28;20483;-57
2021/05/24 00:13:59;;;;;;;4.80;2.70;;;11.10;99.90;;;;;;6320917;28;20457;-57
2021/05/24 00:17:02;;;;;;;3.60;3.30;;;11.10;99.90;;;;;;6324250;28;20473;-57
2021/05/24 00:20:06;;;;;;;3.10;2.80;;;11.10;99.90;;;;;;6323921;28;20479;-57
2021/05/24 00:23:09;;;;;;;3.17;2.30;;;11.20;99.90;;;;;;6319315;28;20476;-66
2021/05/24 00:26:14;;;;;;;3.57;2.87;;;11.10;99.90;;;;;;6324021;28;20472;-61
2021/05/24 00:29:19;;;;;;;3.93;2.80;;;11.00;99.90;;;;;;6324884;28;20519;-61
2021/05/24 00:32:22;;;;;;;2.47;2.27;;;11.00;99.90;;;;;;6324969;28;20443;-63
2021/05/24 00:35:25;;;;;;;2.80;2.60;;;10.90;99.90;;;;;;6326448;28;20443;-61
2021/05/24 00:38:28;;;;;;;3.60;2.70;;;10.80;99.90;;;;;;6324631;28;20440;-60
2021/05/24 00:41:31;;;;;;;2.80;2.50;;;10.80;99.90;;;;;;6325929;28;20456;-57
2021/05/24 00:44:34;;;;;;;2.90;2.70;;;10.90;99.90;;;;;;6325239;28;20492;-66
2021/05/24 00:47:37;;;;;;;2.57;2.37;;;10.80;99.90;;;;;;6325652;28;20440;-66
2021/05/24 00:50:40;;;;;;;3.07;2.37;;;10.80;99.90;;;;;;6326073;28;20491;-66
2021/05/24 00:53:43;;;;;;;2.60;1.93;;;10.80;99.90;;;;;;6325340;28;20476;-61
2021/05/24 00:56:47;;;;;;;2.93;2.47;;;10.80;99.90;;;;;;6325668;28;20463;-61
2021/05/24 00:59:55;;;;;;;2.67;2.47;;;10.80;99.90;;;;;;6325634;28;20530;-62
2021/05/24 01:02:58;;;;;;;3.13;2.47;;;10.70;99.90;;;;;;6325574;28;20487;-61
2021/05/24 01:06:01;;;;;;;2.93;2.73;;;10.70;99.90;;;;;;6325221;28;20475;-61
2021/05/24 01:09:05;;;;;;;2.50;2.30;;;10.70;99.90;;;;;;6325492;28;20472;-61
2021/05/24 01:12:10;;;;;;;4.63;2.60;;;10.70;99.90;;;;;;6325152;28;21018;-66
2021/05/24 01:15:14;;;;;;;3.10;2.80;;;10.70;99.90;;;;;;6325650;28;20472;-66
2021/05/24 01:18:17;;;;;;;3.37;2.93;;;10.70;99.90;;;;;;6325109;28;20509;-61
2021/05/24 01:21:23;;;;;;;3.13;2.80;;;10.70;99.90;;;;;;6325178;28;20476;-57
2021/05/24 01:24:26;;;;;;;3.83;2.60;;;10.60;99.90;;;;;;6324978;28;20460;-57
2021/05/24 01:27:29;;;;;;;4.03;3.73;;;10.60;99.90;;;;;;6325226;28;20465;-57
2021/05/24 01:30:32;;;;;;;4.03;3.73;;;10.60;99.90;;;;;;6325168;28;20476;-57
2021/05/24 01:33:36;;;;;;;4.50;3.73;;;10.60;99.90;;;;;;6324596;28;20461;-57
2021/05/24 01:36:40;;;;;;;8.80;4.00;;;10.60;99.90;;;;;;6325009;28;20460;-61
2021/05/24 01:39:42;;;;;;;4.13;3.30;;;10.60;99.90;;;;;;6324859;28;20483;-61
2021/05/24 01:42:45;;;;;;;4.43;2.63;;;10.50;99.90;;;;;;6324965;28;20479;-61
2021/05/24 01:45:48;;;;;;;4.47;3.43;;;10.40;99.90;;;;;;6324396;28;20464;-61
2021/05/24 01:48:51;;;;;;;3.20;3.00;;;10.30;99.90;;;;;;6324504;28;20468;-61
2021/05/24 01:51:54;;;;;;;3.20;2.63;;;10.30;99.90;;;;;;6324519;28;20482;-66
2021/05/24 01:54:58;;;;;;;3.10;2.90;;;10.30;99.90;;;;;;6324657;28;20545;-61
2021/05/24 01:58:00;;;;;;;2.40;2.20;;;10.20;99.90;;;;;;6324145;28;20474;-61
2021/05/24 02:01:05;;;;;;;3.43;2.70;;;10.20;99.90;;;;;;6324396;28;20480;-61
2021/05/24 02:04:08;;;;;;;2.43;2.23;;;10.30;99.90;;;;;;6324086;28;20598;-62
2021/05/24 02:07:12;;;;;;;2.70;2.50;;;10.30;99.90;;;;;;6324489;28;20479;-60
2021/05/24 02:10:17;;;;;;;2.33;2.13;;;10.20;99.90;;;;;;6324391;28;20468;-57
2021/05/24 02:13:20;;;;;;;2.97;2.50;;;10.20;99.90;;;;;;6324267;28;20472;-62
2021/05/24 02:16:38;;;;;;;4.37;2.57;;;10.20;99.90;;;;;;6324363;28;20788;-57
2021/05/24 02:19:41;;;;;;;3.53;2.10;;;10.20;99.90;;;;;;6324088;28;20538;-56
2021/05/24 02:22:45;;;;;;;3.40;2.17;;;10.20;99.90;;;;;;6324199;28;20468;-60
2021/05/24 02:25:47;;;;;;;2.77;2.03;;;10.10;99.90;;;;;;6324055;28;20479;-61
2021/05/24 02:28:50;;;;;;;2.33;2.10;;;10.10;99.90;;;;;;6324168;28;20472;-61
2021/05/24 02:31:53;;;;;;;3.47;2.57;;;10.00;99.90;;;;;;6313970;28;20967;-57
2021/05/24 02:34:55;;;;;;;2.77;2.57;;;10.00;99.90;;;;;;6324087;28;20483;-57
2021/05/24 02:37:59;;;;;;;5.30;2.30;;;10.00;99.90;;;;;;6323750;28;20483;-57
2021/05/24 02:41:02;;;;;;;3.17;2.40;;;10.00;99.90;;;;;;6324116;28;20483;-61
2021/05/24 02:44:06;;;;;;;3.00;2.57;;;10.00;99.90;;;;;;6323778;28;20491;-66
2021/05/24 02:47:09;;;;;;;1.97;1.77;;;10.00;99.90;;;;;;6323867;28;20463;-61
2021/05/24 02:50:15;;;;;;;2.23;2.03;;;10.10;99.90;;;;;;6323585;28;20587;-61
2021/05/24 02:53:18;;;;;;;2.07;1.97;;;10.10;99.90;;;;;;6323868;28;20498;-58
2021/05/24 02:56:21;;;;;;;2.60;2.40;;;10.10;99.90;;;;;;6323682;28;20475;-57
2021/05/24 02:59:24;;;;;;;2.57;2.37;;;10.10;99.90;;;;;;6323703;28;20452;-57
2021/05/24 03:02:28;;;;;;;3.90;2.37;;;10.20;99.90;;;;;;6327069;28;20444;-61
2021/05/24 03:05:31;;;;;;;2.20;2.10;;;10.20;99.90;;;;;;6328094;28;20472;-61
2021/05/24 03:08:34;;;;;;;3.20;1.83;;;10.20;99.90;;;;;;6328566;28;20451;-66
2021/05/24 03:11:37;;;;;;;2.30;2.10;;;10.30;99.90;;;;;;6327939;28;20471;-66
2021/05/24 03:14:40;;;;;;;4.60;2.13;;;10.30;99.90;;;;;;6328522;28;20447;-57
2021/05/24 03:17:44;;;;;;;2.07;1.97;;;10.30;99.90;;;;;;6327975;28;20460;-60
2021/05/24 03:20:47;;;;;;;3.67;2.00;;;10.30;99.90;;;;;;6328680;28;21304;-62
2021/05/24 03:23:50;;;;;;;2.10;1.90;;;10.40;99.90;;;;;;6327525;28;20476;-61
2021/05/24 03:26:53;;;;;;;2.20;2.00;;;10.40;99.90;;;;;;6328324;28;20472;-57
2021/05/24 03:29:56;;;;;;;2.80;2.00;;;10.40;99.90;;;;;;6327645;28;20467;-57
2021/05/24 03:32:58;;;;;;;2.47;2.27;;;10.50;99.90;;;;;;6323226;28;20482;-59
2021/05/24 03:36:01;;;;;;;3.47;2.90;;;10.50;99.90;;;;;;6328146;28;20468;-60
2021/05/24 03:39:06;;;;;;;2.00;1.87;;;10.50;99.90;;;;;;6327622;28;20944;-56
2021/05/24 03:42:09;;;;;;;3.30;2.33;;;10.50;99.90;;;;;;6327525;28;20476;-65
2021/05/24 03:45:15;;;;;;;3.90;2.50;;;10.40;99.90;;;;;;6327150;28;20792;-65
2021/05/24 03:48:18;;;;;;;3.17;2.47;;;10.30;99.90;;;;;;6327582;28;20812;-60
2021/05/24 03:51:21;;;;;;;2.40;1.87;;;10.40;99.90;;;;;;6327193;28;20967;-66
2021/05/24 03:54:24;;;;;;;2.43;2.10;;;10.40;99.90;;;;;;6327439;28;20989;-66
2021/05/24 03:57:27;;;;;;;2.40;2.20;;;10.40;99.90;;;;;;6327181;28;20464;-56
2021/05/24 04:00:30;;;;;;;2.23;2.03;;;10.50;99.90;;;;;;6327004;28;20991;-61
2021/05/24 04:03:33;;;;;;;4.20;1.97;;;10.60;99.90;;;;;;6327090;28;20479;-66
2021/05/24 04:06:37;;;;;;;3.47;2.23;;;10.60;99.90;;;;;;6327354;28;20464;-66
2021/05/24 04:09:42;;;;;;;2.20;2.00;;;10.70;99.90;;;;;;6326970;28;20476;-66
2021/05/24 04:12:45;;;;;;;2.80;2.00;;;10.70;99.90;;;;;;6326796;28;20970;-60
2021/05/24 04:15:50;;;;;;;3.27;2.17;;;10.70;99.90;;;;;;6326633;28;20478;-56
2021/05/24 04:18:53;;;;;;;2.73;1.80;;;10.80;99.90;;;;;;6326526;28;20480;-56
2021/05/24 04:21:56;;;;;;;3.70;2.33;;;10.90;99.90;;;;;;6326688;28;20475;-66
2021/05/24 04:24:59;;;;;;;1.60;1.50;;;11.00;99.90;;;;;;6326264;28;20959;-65
2021/05/24 04:28:02;;;;;;;2.87;1.70;;;11.30;99.90;;;;;;6326791;28;20471;-57
2021/05/24 04:31:05;;;;;;;2.50;1.90;;;11.40;99.90;;;;;;6326097;28;20483;-57
2021/05/24 04:34:08;;;;;;;2.03;1.83;;;11.40;99.90;;;;;;6326478;28;20468;-56
2021/05/24 04:37:11;;;;;;;2.87;2.00;;;11.50;99.90;;;;;;6325934;28;20475;-56
2021/05/24 04:40:15;;;;;;;2.63;2.30;;;11.60;99.90;;;;;;6316374;28;20480;-61
2021/05/24 04:43:17;;;;;;;2.37;2.17;;;11.80;99.90;;;;;;6325811;28;20480;-62
2021/05/24 04:46:20;;;;;;;2.60;1.70;;;11.90;99.90;;;;;;6325954;28;20483;-60
2021/05/24 04:49:23;;;;;;;2.83;1.73;;;12.00;99.90;;;;;;6325544;28;20786;-61
2021/05/24 04:52:26;;;;;;;2.60;1.67;;;12.20;99.90;;;;;;6325935;28;20464;-68
2021/05/24 04:55:29;;;;;;;6.00;1.93;;;12.30;99.90;;;;;;6325818;28;20563;-67
2021/05/24 04:58:32;;;;;;;2.67;1.70;;;12.50;99.90;;;;;;6325618;28;20987;-67
2021/05/24 05:01:35;;;;;;;2.70;1.90;;;12.60;99.50;;;;;;6325517;28;20818;-57
2021/05/24 05:04:38;;;;;;;2.00;1.80;;;12.70;98.80;;;;;;6325582;28;20975;-57
2021/05/24 05:07:40;;;;;;;2.73;1.53;;;12.70;99.00;;;;;;6325714;28;20471;-57
2021/05/24 05:10:45;;;;;;;3.67;1.70;;;12.90;98.90;;;;;;6325333;28;20472;-57
2021/05/24 05:13:48;;;;;;;2.07;1.50;;;13.00;98.70;;;;;;6325559;28;20974;-57
2021/05/24 05:16:52;;;;;;;1.83;1.50;;;13.00;98.40;;;;;;6324931;28;20866;-58
2021/05/24 05:19:55;;;;;;;1.80;1.47;;;13.10;97.80;;;;;;6324983;28;20477;-58
2021/05/24 05:22:57;;;;;;;1.57;1.40;;;13.10;97.40;;;;;;6324838;28;20472;-58
2021/05/24 05:26:01;;;;;;;1.80;1.37;;;13.20;97.30;;;;;;6324574;28;20822;-57
2021/05/24 05:29:04;;;;;;;1.63;1.53;;;13.30;97.00;;;;;;6324735;28;20472;-57
2021/05/24 05:32:07;;;;;;;2.90;1.50;;;13.40;97.00;;;;;;6324918;28;20460;-57
2021/05/24 05:35:10;;;;;;;2.10;1.57;;;13.50;96.80;;;;;;6325042;28;20472;-57
2021/05/24 05:38:14;;;;;;;1.67;1.57;;;13.80;96.70;;;;;;6325176;28;20475;-57
2021/05/24 05:41:17;;;;;;;2.40;2.20;;;14.00;96.00;;;;;;6324728;28;20472;-57
2021/05/24 05:44:20;;;;;;;1.60;1.30;;;14.00;95.40;;;;;;6313568;28;20480;-58
2021/05/24 05:47:23;;;;;;;3.40;2.30;;;14.10;95.30;;;;;;6324239;28;20754;-60
2021/05/24 05:50:26;;;;;;;1.67;1.47;;;14.10;94.90;;;;;;6324307;28;20801;-58
2021/05/24 05:53:29;;;;;;;1.63;1.53;;;14.20;94.80;;;;;;6324893;28;20483;-58
2021/05/24 05:56:33;;;;;;;2.73;1.50;;;14.00;94.80;;;;;;6324574;28;20574;-57
2021/05/24 05:59:36;;;;;;;1.63;1.53;;;14.00;94.70;;;;;;6324326;28;20785;-57
2021/05/24 06:02:38;;;;;;;1.83;1.63;;;13.90;95.10;;;;;;6324169;28;20444;-57
2021/05/24 06:05:44;;;;;;;3.27;2.40;;;13.90;95.30;;;;;;6324734;28;20586;-57
2021/05/24 06:08:47;;;;;;;2.00;1.80;;;13.80;95.40;;;;;;6324193;28;20497;-57
2021/05/24 06:11:52;;;;;;;4.20;2.50;;;13.70;95.80;;;;;;6324474;28;20483;-57
2021/05/24 06:14:57;;;;;;;5.20;2.67;;;13.70;97.30;;;;;;6323933;28;20472;-57
2021/05/24 06:17:59;;;;;;;2.60;2.40;;;13.70;97.80;;;;;;6324121;28;20479;-57
2021/05/24 06:21:02;;;;;;;4.20;2.63;;;13.70;98.10;;;;;;6324317;28;20472;-57
2021/05/24 06:24:05;;;;;;;3.00;2.70;;;13.70;98.40;;;;;;6323650;28;20806;-57
2021/05/24 06:27:09;;;;;;;2.93;2.53;;;13.60;98.50;;;;;;6324389;28;20475;-57
2021/05/24 06:30:13;;;;;;;3.73;2.50;;;13.50;98.70;;;;;;6323662;28;20797;-57
2021/05/24 06:33:15;;;;;;;3.60;2.93;;;13.40;98.70;;;;;;6324070;28;20468;-59
2021/05/24 06:36:18;;;;;;;4.67;2.83;;;13.40;98.90;;;;;;6325218;28;20520;-58
2021/05/24 06:39:21;;;;;;;2.40;2.20;;;13.50;99.10;;;;;;6329303;28;20464;-57
2021/05/24 06:42:25;;;;;;;2.53;2.33;;;13.50;99.10;;;;;;6328740;28;20793;-57
2021/05/24 06:45:28;;;;;;;3.23;2.93;;;13.40;99.00;;;;;;6324085;28;20482;-57
2021/05/24 06:48:30;;;;;;;2.87;2.27;;;13.50;99.20;;;;;;6328881;28;20483;-57
2021/05/24 06:51:33;;;;;;;3.90;3.13;;;13.60;99.00;;;;;;6328882;28;20963;-57
2021/05/24 06:54:36;;;;;;;4.33;2.73;;;13.60;98.90;;;;;;6328644;28;20464;-57
2021/05/24 06:57:40;;;;;;;2.43;2.23;;;13.70;98.80;;;;;;6328561;28;20990;-57
2021/05/24 07:00:43;;;;;;;2.33;1.97;;;13.80;98.60;;;;;;6328870;28;20478;-57
2021/05/24 07:03:45;;;;;;;2.97;2.70;;;13.80;98.50;;;;;;6328409;28;20994;-57
2021/05/24 07:06:48;;;;;;;2.97;2.70;;;13.80;98.40;;;;;;6328736;28;20468;-57
2021/05/24 07:09:50;;;;;;;3.03;2.77;;;13.70;98.40;;;;;;6328074;28;20479;-57
2021/05/24 07:12:54;;;;;;;2.40;2.20;;;13.60;98.60;;;;;;6328741;28;20468;-57
2021/05/24 07:15:57;;;;;;;5.13;2.63;;;13.60;98.90;;;;;;6328175;28;20499;-56
2021/05/24 07:19:00;;;;;;;3.80;2.60;;;13.50;99.10;;;;;;6328080;28;20483;-57
2021/05/24 07:22:02;;;;;;;3.03;2.77;;;13.40;99.10;;;;;;6327758;28;20472;-59
2021/05/24 07:25:06;;;;;;;4.43;3.03;;;13.30;99.70;;;;;;6328220;28;20472;-57
2021/05/24 07:28:10;;;;;;;3.73;2.87;;;13.20;99.70;;;;;;6328215;28;20476;-57
2021/05/24 07:31:13;;;;;;;3.50;2.73;;;13.20;99.90;;;;;;6327742;28;20472;-57
2021/05/24 07:34:16;;;;;;;4.23;2.93;;;13.10;99.90;;;;;;6327959;28;20479;-57
2021/05/24 07:37:19;;;;;;;2.73;2.53;;;13.10;99.90;;;;;;6327525;28;20472;-57
2021/05/24 07:40:21;;;;;;;2.90;2.67;;;13.10;99.90;;;;;;6327529;28;20482;-56
2021/05/24 07:43:25;;;;;;;4.17;3.77;;;13.00;99.90;;;;;;6316193;28;20465;-57
2021/05/24 07:46:28;;;;;;;3.03;2.73;;;12.90;99.90;;;;;;6301679;28;20477;-57
2021/05/24 07:49:31;;;;;;;4.07;2.67;;;12.90;99.90;;;;;;6293487;28;20468;-67
2021/05/24 07:52:33;;;;;;;2.80;2.60;;;13.00;99.90;;;;;;6302188;28;20473;-61
2021/05/24 07:55:37;;;;;;;3.67;3.20;;;13.10;99.90;;;;;;6301897;28;20465;-67
2021/05/24 07:58:41;;;;;;;4.10;3.10;;;13.10;99.90;;;;;;6301060;28;20500;-67
2021/05/24 08:01:43;;;;;;;3.33;3.13;;;13.10;99.90;;;;;;6299450;28;20513;-67
2021/05/24 08:04:46;;;;;;;4.40;3.10;;;13.00;99.90;;;;;;6299680;28;20469;-67
2021/05/24 08:07:49;;;;;;;4.50;2.90;;;12.90;99.90;;;;;;6299623;28;20488;-67
2021/05/24 08:10:51;;;;;;;3.40;3.10;;;12.90;99.90;;;;;;6299613;28;20477;-60
2021/05/24 08:13:55;;;;;;;3.73;2.90;;;12.90;99.90;;;;;;6300454;28;20484;-60
2021/05/24 08:16:59;;;;;;;3.47;3.17;;;12.70;99.90;;;;;;6301580;28;20465;-67
2021/05/24 08:20:02;;;;;;;4.20;2.80;;;12.70;99.90;;;;;;6300753;28;20477;-60
2021/05/24 08:23:07;;;;;;;3.30;3.03;;;12.90;99.90;;;;;;6300858;28;20470;-60
2021/05/24 08:26:10;;;;;;;7.37;3.40;;;13.10;99.90;;;;;;6300156;28;20479;-60
2021/05/24 08:29:14;;;;;;;3.53;3.23;;;13.20;99.90;;;;;;6300375;28;20488;-60
2021/05/24 08:32:16;;;;;;;2.67;2.47;;;13.30;99.90;;;;;;6300212;28;20476;-62
2021/05/24 08:35:23;;;;;;;3.20;2.90;;;13.40;99.90;;;;;;6298965;28;20951;-60
2021/05/24 08:38:27;;;;;;;6.20;3.00;;;13.40;99.90;;;;;;6300034;28;21069;-60
2021/05/24 08:41:32;;;;;;;3.10;2.80;;;13.60;99.90;;;;;;6299523;28;20766;-60
2021/05/24 08:44:37;;;;;;;3.83;3.23;;;13.60;99.90;;;;;;6299118;28;20437;-60
2021/05/24 08:47:41;;;;;;;3.40;2.93;;;13.70;99.90;;;;;;6298892;28;20457;-60
2021/05/24 08:50:46;;;;;;;3.07;2.50;;;13.70;99.90;;;;;;6291053;28;22812;-60
2021/05/24 08:53:49;;;;;;;3.13;2.60;;;13.80;99.90;;;;;;6298031;28;20782;-61
2021/05/24 08:56:51;;;;;;;4.70;3.63;;;13.80;99.90;;;;;;6300519;28;20465;-60
2021/05/24 08:59:55;;;;;;;4.47;3.17;;;13.70;99.90;;;;;;6299572;28;20479;-61
2021/05/24 09:02:58;;;;;;;5.50;3.40;;;13.60;99.90;;;;;;6300899;28;20469;-60
2021/05/24 09:06:03;;;;;;;3.53;3.23;;;13.50;99.90;;;;;;6300034;28;20480;-60
2021/05/24 09:09:10;;;;;;;3.77;3.47;;;13.40;99.90;;;;;;6300241;28;20465;-60
2021/05/24 09:12:19;;;;;;;3.47;3.13;;;13.50;99.90;;;;;;6300316;28;20473;-60
2021/05/24 09:15:24;;;;;;;2.80;2.60;;;13.50;99.90;;;;;;6300165;28;20488;-60
2021/05/24 09:18:27;;;;;;;3.50;2.70;;;13.50;99.90;;;;;;6299624;28;20496;-60
2021/05/24 09:21:31;;;;;;;5.30;4.40;;;13.60;99.90;;;;;;6300056;28;20477;-60
2021/05/24 09:24:37;;;;;;;4.70;3.97;;;13.60;99.90;;;;;;6300077;28;20571;-60
2021/05/24 09:27:40;;;;;;;4.67;3.07;;;13.70;99.90;;;;;;6299986;28;20477;-60
2021/05/24 09:30:53;;;;;;;3.73;3.10;;;13.70;99.90;;;;;;6298951;28;20556;-60
2021/05/24 09:33:59;;;;;;;4.10;3.80;;;13.70;99.90;;;;;;6299787;28;20469;-62
2021/05/24 09:37:02;;;;;;;3.80;3.50;;;13.60;99.90;;;;;;6299567;28;20479;-60
2021/05/24 09:40:18;;;;;;;6.60;3.23;;;13.60;99.90;;;;;;6299773;28;20480;-60
2021/05/24 09:56:10;;;;;;;3.90;3.60;;;13.70;99.90;;;;;;6301633;27;20571;-57
2021/05/24 09:59:14;;;;;;;4.33;4.03;;;14.40;99.90;;;;;;6271198;28;20458;-58
2021/05/24 10:02:26;;;;;;;4.13;3.80;;;14.80;99.90;;;;;;6268608;28;20473;-58
2021/05/24 10:05:40;;;;;;;3.60;3.30;;;15.20;99.90;;;;;;6266313;28;20474;-59
2021/05/24 10:08:42;;;;;;;3.50;3.07;;;15.50;99.90;;;;;;6270384;28;20515;-57
2021/05/24 10:11:47;;;;;;;3.00;2.80;;;15.60;99.90;;;;;;6266427;28;20475;-59
2021/05/24 10:14:50;;;;;;;3.03;2.83;;;15.50;99.90;;;;;;6270204;28;20466;-57
2021/05/24 10:17:59;;;;;;;2.80;2.60;;;15.50;99.90;;;;;;6270150;28;20999;-58
2021/05/24 10:21:02;;;;;;;2.23;2.03;;;15.50;99.90;;;;;;6266701;28;20471;-57
2021/05/24 10:24:07;;;;;;;2.37;2.17;;;15.30;99.90;;;;;;6287803;28;20485;-57
2021/05/24 10:27:11;;;;;;;2.50;2.30;;;15.20;99.90;;;;;;6267287;28;20462;-57
2021/05/24 10:30:15;;;;;;;3.40;2.77;;;15.20;99.90;;;;;;6255459;28;20798;-57
2021/05/24 10:33:19;;;;;;;2.70;2.50;;;15.20;99.90;;;;;;6255661;28;20467;-57
2021/05/24 10:36:29;;;;;;;3.00;2.80;;;15.20;99.90;;;;;;6263816;28;20806;-57
2021/05/24 10:39:44;;;;;;;3.00;2.60;;;15.20;99.90;;;;;;6262847;28;21041;-57
2021/05/24 10:42:48;;;;;;;3.60;1.93;;;14.90;99.90;;;;;;6255873;28;20473;-59
2021/05/24 10:45:57;;;;;;;2.73;2.17;;;14.90;99.90;;;;;;6266193;28;20963;-57
2021/05/24 10:49:03;;;;;;;4.07;2.50;;;14.90;99.90;;;;;;6257000;28;20825;-56
2021/05/24 10:52:10;;;;;;;2.93;2.30;;;14.90;99.90;;;;;;6255773;28;20921;-57
2021/05/24 10:55:42;;;;;;;2.33;2.20;;;14.80;99.90;;;;;;6249989;28;20485;-57
2021/05/24 10:58:46;;;;;;;4.40;1.93;;;14.70;99.90;;;;;;6238503;28;20468;-56
2021/05/24 11:01:59;;;;;;;2.00;1.90;;;14.90;99.90;;;;;;6248528;28;20463;-58
2021/05/24 11:05:05;;;;;;;2.50;2.30;;;14.70;99.90;;;;;;6239497;28;20479;-57
2021/05/24 11:08:08;;;;;;;1.87;1.77;;;14.80;99.90;;;;;;6237811;28;20467;-57
2021/05/24 11:11:23;;;;;;;1.90;1.80;;;14.70;99.90;;;;;;6242131;28;20468;-56
2021/05/24 11:14:27;;;;;;;2.63;2.43;;;14.60;99.90;;;;;;6237633;28;20460;-56
2021/05/24 11:18:07;;;;;;;2.30;2.03;;;14.30;99.90;;;;;;6249131;28;20471;-57
2021/05/24 11:21:19;;;;;;;2.30;2.10;;;14.20;99.90;;;;;;6245824;28;20471;-56
2021/05/24 11:24:34;;;;;;;2.53;2.33;;;14.10;99.90;;;;;;6252027;28;20490;-58
2021/05/24 11:27:37;;;;;;;2.30;2.10;;;14.00;99.90;;;;;;6252198;28;20450;-58
2021/05/24 11:30:42;;;;;;;2.40;2.20;;;13.90;99.90;;;;;;6252354;28;20474;-58
2021/05/24 11:33:51;;;;;;;2.00;1.80;;;13.80;99.90;;;;;;6251751;28;20452;-58
2021/05/24 11:36:56;;;;;;;1.93;1.57;;;13.90;99.90;;;;;;6252065;28;20467;-57
2021/05/24 11:40:00;;;;;;;2.00;1.80;;;13.90;99.90;;;;;;6252141;28;20482;-57
2021/05/24 11:43:11;;;;;;;2.33;1.87;;;13.90;99.90;;;;;;6251838;28;20470;-57
2021/05/24 11:46:15;;;;;;;2.13;1.90;;;13.90;99.90;;;;;;6251686;28;20475;-58
2021/05/24 11:49:20;;;;;;;2.63;2.43;;;13.90;99.90;;;;;;6251772;28;20463;-58
2021/05/24 11:52:25;;;;;;;4.93;2.93;;;13.80;99.90;;;;;;6248261;28;20475;-56
2021/05/24 11:55:27;;;;;;;3.53;2.43;;;13.90;99.90;;;;;;6245906;28;20467;-55
2021/05/24 11:58:30;;;;;;;2.30;2.10;;;13.90;99.90;;;;;;6251594;28;20471;-56
2021/05/24 12:01:34;;;;;;;2.77;2.67;;;13.90;99.90;;;;;;6230685;28;20467;-56
2021/05/24 12:04:39;;;;;;;2.70;2.50;;;13.90;99.90;;;;;;6240471;28;20550;-56
2021/05/24 12:07:42;;;;;;;2.60;2.40;;;13.90;99.90;;;;;;6233642;28;20497;-56
2021/05/24 12:10:49;;;;;;;4.27;2.90;;;13.80;99.90;;;;;;6258963;28;20473;-57
2021/05/24 12:14:03;;;;;;;3.00;2.80;;;13.80;99.90;;;;;;6268077;28;20477;-57
2021/05/24 12:17:09;;;;;;;3.30;2.80;;;13.80;99.90;;;;;;6264388;28;20561;-57
2021/05/24 12:20:12;;;;;;;3.20;2.90;;;13.70;99.90;;;;;;6244193;28;20471;-57
2021/05/24 12:23:15;;;;;;;2.90;2.70;;;13.70;99.90;;;;;;6234875;28;20482;-57
2021/05/24 12:26:18;;;;;;;2.93;2.67;;;13.70;99.90;;;;;;6248513;28;20479;-58
2021/05/24 12:29:26;;;;;;;4.23;3.83;;;13.60;99.90;;;;;;6242649;28;20468;-57
2021/05/24 12:32:35;;;;;;;3.37;3.07;;;13.70;99.90;;;;;;6235536;28;20948;-58
2021/05/24 12:35:41;;;;;;;3.43;3.13;;;13.80;99.90;;;;;;6237071;28;20468;-57
2021/05/24 12:38:47;;;;;;;2.67;2.47;;;13.80;99.90;;;;;;6233152;28;20502;-56
2021/05/24 12:41:51;;;;;;;3.20;2.90;;;13.90;99.90;;;;;;6242098;28;21006;-57
2021/05/24 12:45:00;;;;;;;2.93;2.73;;;13.80;99.90;;;;;;6234577;28;20476;-57
2021/05/24 12:48:13;;;;;;;3.57;3.27;;;13.80;99.90;;;;;;6233219;28;20801;-57
2021/05/24 12:51:17;;;;;;;4.00;3.20;;;13.70;99.90;;;;;;6229610;28;20484;-57
2021/05/24 12:54:20;;;;;;;3.80;3.50;;;13.70;99.90;;;;;;6239100;28;20463;-57
2021/05/24 12:57:30;;;;;;;6.00;5.50;;;13.80;99.90;;;;;;6249265;28;20463;-58
2021/05/24 13:00:40;;;;;;;3.20;3.00;;;13.80;99.90;;;;;;6249728;28;20443;-57
2021/05/24 13:03:46;;;;;;;3.30;3.10;;;13.80;99.90;;;;;;6245504;28;20451;-57
2021/05/24 13:06:53;;;;;;;2.67;2.50;;;13.90;99.90;;;;;;6245004;28;20473;-57
2021/05/24 13:10:04;;;;;;;3.07;2.50;;;13.90;99.90;;;;;;6242636;28;20473;-55
2021/05/24 13:13:17;;;;;;;3.70;2.80;;;13.90;99.90;;;;;;6231268;28;20973;-56
2021/05/24 13:16:26;;;;;;;2.97;2.77;;;14.00;99.90;;;;;;6238559;28;20479;-57
2021/05/24 13:19:38;;;;;;;2.70;2.50;;;14.10;99.90;;;;;;6242330;28;20802;-56
2021/05/24 13:30:02;;;;;;;3.10;2.90;;;13.70;99.90;;;;;;6202698;28;20467;-56
2021/05/24 13:33:27;;;;;;;2.73;2.53;;;13.50;99.90;;;;;;6233083;28;20994;-56
2021/05/24 13:36:33;;;;;;;3.70;2.90;;;13.40;99.90;;;;;;6239163;28;20464;-56
2021/05/24 13:39:36;;;;;;;3.60;3.30;;;13.30;99.90;;;;;;6248471;28;20542;-56
2021/05/24 13:42:41;;;;;;;3.50;3.23;;;13.20;99.90;;;;;;6266041;28;20458;-56
2021/05/24 13:45:44;;;;;;;3.73;3.40;;;13.10;99.90;;;;;;6270614;28;20475;-55
2021/05/24 13:48:47;;;;;;;3.33;3.13;;;13.20;99.90;;;;;;6270540;28;20470;-55
2021/05/24 13:51:51;;;;;;;5.00;3.10;;;13.30;99.90;;;;;;6270371;28;20496;-58
2021/05/24 13:54:54;;;;;;;3.63;3.33;;;13.30;99.90;;;;;;6246928;28;20967;-55
2021/05/24 13:57:58;;;;;;;3.40;3.20;;;13.50;99.90;;;;;;6272696;28;20480;-55
2021/05/24 14:01:00;;;;;;;3.43;3.13;;;13.70;99.90;;;;;;6268648;28;20474;-55
2021/05/24 14:04:04;;;;;;;3.80;2.80;;;14.10;99.90;;;;;;6246935;28;21033;-55
2021/05/24 14:07:07;;;;;;;5.10;3.90;;;14.20;99.90;;;;;;6248559;28;20835;-57
2021/05/24 14:10:14;;;;;;;3.77;3.07;;;14.30;99.90;;;;;;6247761;28;20467;-56
2021/05/24 14:13:20;;;;;;;3.77;3.47;;;14.40;99.90;;;;;;6248856;28;20540;-56
2021/05/24 14:16:23;;;;;;;3.07;2.80;;;14.40;99.90;;;;;;6248768;28;20490;-56
2021/05/24 14:19:25;;;;;;;3.17;2.87;;;14.50;99.90;;;;;;6248459;28;20475;-56
2021/05/24 14:22:29;;;;;;;3.73;3.43;;;14.40;99.90;;;;;;6249136;28;20474;-56
2021/05/24 14:25:32;;;;;;;3.97;3.03;;;14.40;99.90;;;;;;6249324;28;20477;-56
2021/05/24 14:28:35;;;;;;;3.37;3.10;;;14.40;99.90;;;;;;6248468;28;20485;-56
2021/05/24 14:31:38;;;;;;;3.00;2.80;;;14.50;99.90;;;;;;6251670;28;20485;-56
2021/05/24 14:34:41;;;;;;;3.23;2.67;;;14.70;99.90;;;;;;6244236;28;20968;-56
2021/05/24 14:37:44;;;;;;;3.50;3.20;;;14.80;99.90;;;;;;6251441;28;20478;-56
2021/05/24 14:40:47;;;;;;;4.13;3.73;;;14.90;99.90;;;;;;6277284;28;20473;-56
2021/05/24 14:43:50;;;;;;;3.23;3.03;;;14.90;99.90;;;;;;6265479;28;20471;-57
2021/05/24 14:46:52;;;;;;;3.30;3.00;;;14.90;99.90;;;;;;6253039;28;20482;-56
2021/05/24 14:49:57;;;;;;;3.13;2.93;;;14.90;99.90;;;;;;6244352;28;20471;-57
2021/05/24 14:53:02;;;;;;;3.93;2.80;;;14.80;99.90;;;;;;6251259;28;20467;-56
2021/05/24 14:56:05;;;;;;;4.30;3.40;;;14.70;99.90;;;;;;6244400;28;20475;-56
2021/05/24 14:59:08;;;;;;;3.13;2.83;;;14.70;99.90;;;;;;6228445;28;21001;-56
2021/05/24 15:02:11;;;;;;;3.07;2.80;;;14.50;99.90;;;;;;6227872;28;20463;-56
2021/05/24 15:05:15;;;;;;;3.00;2.73;;;14.50;99.90;;;;;;6244246;28;20501;-56
2021/05/24 15:08:18;;;;;;;3.50;3.20;;;14.60;99.90;;;;;;6252519;28;20478;-56
2021/05/24 15:11:21;;;;;;;3.67;3.30;;;14.70;99.90;;;;;;6253010;28;20467;-67
2021/05/24 15:14:25;;;;;;;3.40;3.07;;;14.60;99.90;;;;;;6252447;28;20497;-59
2021/05/24 15:17:29;;;;;;;3.07;2.87;;;14.70;99.90;;;;;;6252499;28;20540;-58
2021/05/24 15:20:32;;;;;;;3.03;2.83;;;14.40;99.90;;;;;;6249172;28;20474;-66
2021/05/24 15:23:49;;;;;;;6.50;2.97;;;14.30;99.90;;;;;;6244680;28;20475;-67
2021/05/24 15:26:52;;;;;;;2.90;2.70;;;14.30;99.90;;;;;;6249805;28;20483;-59
2021/05/24 15:29:55;;;;;;;2.73;2.53;;;14.00;99.90;;;;;;6235491;28;20472;-61
2021/05/24 15:32:57;;;;;;;3.23;2.93;;;13.80;99.90;;;;;;6248842;28;20963;-61
2021/05/24 15:36:00;;;;;;;3.30;3.00;;;13.60;99.90;;;;;;6230399;28;20464;-62
2021/05/24 15:39:06;;;;;;;3.93;3.63;;;13.70;99.90;;;;;;6225145;28;20860;-59
2021/05/24 15:42:10;;;;;;;4.33;3.53;;;13.90;99.90;;;;;;6243825;28;20475;-62
2021/05/24 15:45:14;;;;;;;2.40;2.20;;;14.10;99.90;;;;;;6251592;28;20478;-61
2021/05/24 15:48:17;;;;;;;3.67;2.40;;;14.10;99.90;;;;;;6251191;28;20541;-62
2021/05/24 15:51:20;;;;;;;2.87;2.67;;;14.00;99.90;;;;;;6251522;28;20482;-61
2021/05/24 15:54:24;;;;;;;3.40;2.90;;;13.80;99.90;;;;;;6249474;28;20483;-62
2021/05/24 15:57:26;;;;;;;2.80;2.60;;;13.50;99.90;;;;;;6231852;28;20522;-61
2021/05/24 16:00:35;;;;;;;3.50;3.20;;;13.40;99.90;;;;;;6226648;28;21037;-62
2021/05/24 16:03:38;;;;;;;3.50;3.20;;;13.40;99.90;;;;;;6226764;28;20440;-68
2021/05/24 16:06:41;;;;;;;2.80;2.20;;;13.40;99.90;;;;;;6226466;28;20494;-70
2021/05/24 16:09:45;;;;;;;2.43;2.23;;;13.50;99.90;;;;;;6226697;28;20770;-68
2021/05/24 16:12:48;;;;;;;4.20;3.33;;;13.50;99.90;;;;;;6226715;28;20456;-68
2021/05/24 16:15:51;;;;;;;4.17;3.77;;;13.50;99.90;;;;;;6226711;28;20472;-67
2021/05/24 16:18:54;;;;;;;4.17;3.10;;;13.40;99.90;;;;;;6237043;28;20471;-69
2021/05/24 16:21:57;;;;;;;3.20;3.00;;;13.40;99.90;;;;;;6250205;28;20963;-67